N0,26 Fumimaru — JK5398 — position and weather

sailwx.info

Track history (hours):
 
Tides and Currents Weather Stations Pressure Air Temp Water Temp Dewpoint Dewpoint Depression Visibility Wind Speed Wind Dir Waves Ship Positions

N0,26 Fumimaru

Last reported at 2015-Mar-14 04:23 UTC. Time now 2015-Mar-27 17:21 UTC.
Position N 35°06' E 139°42'.
Warning: this ship's position is 13 days out of date.

Length 39 m; draft 3.6 m.

Type: Ship. MMSI: 431400427.

Date/timePositionNaut miles runAvg speedWind from/ knotsBaromVisibWave heightAir tempDewpointWater temp
2015-Mar-14 04:23N 35°06' E 139°42'5 5.8
2015-Mar-14 03:33N 35°10' E 139°45'13 5.4
2015-Mar-14 01:15N 35°22' E 139°42'4 5.5
2015-Mar-14 00:29N 35°26' E 139°45'5 5.8
2015-Mar-13 23:33N 35°29' E 139°50'  
2015-Mar-08 07:32N 35°23' E 139°46'12 3.0
2015-Mar-08 03:31N 35°11' E 139°47'2 1.6
2015-Mar-08 02:32N 35°10' E 139°47'2 1.8
2015-Mar-08 01:33N 35°08' E 139°47'1 0.8
2015-Mar-08 00:32N 35°07' E 139°47'2 2.5
2015-Mar-07 23:33N 35°05' E 139°47'2 2.0
2015-Mar-07 22:32N 35°03' E 139°46'1 1.5
2015-Mar-07 21:32N 35°01' E 139°45'2 1.5
2015-Mar-07 20:26N 34°60' E 139°44'  
Track history (hours):
 
Tides and Currents Weather Stations Pressure Air Temp Water Temp Dewpoint Dewpoint Depression Visibility Wind Speed Wind Dir Waves Ship Positions

N0,26 Fumimaru

Last reported at 2015-Mar-14 04:23 UTC. Time now 2015-Mar-27 17:21 UTC.
Position N 35°06' E 139°42'.
Warning: this ship's position is 13 days out of date.

Length 39 m; draft 3.6 m.

Type: Ship. MMSI: 431400427.

Date/timePositionNaut miles runAvg speedWind from/ knotsBaromVisibWave heightAir tempDewpointWater temp
2015-Mar-14 04:23N 35°06' E 139°42'5 5.8
2015-Mar-14 03:33N 35°10' E 139°45'13 5.4
2015-Mar-14 01:15N 35°22' E 139°42'4 5.5
2015-Mar-14 00:29N 35°26' E 139°45'5 5.8
2015-Mar-13 23:33N 35°29' E 139°50'  
2015-Mar-08 07:32N 35°23' E 139°46'12 3.0
2015-Mar-08 03:31N 35°11' E 139°47'2 1.6
2015-Mar-08 02:32N 35°10' E 139°47'2 1.8
2015-Mar-08 01:33N 35°08' E 139°47'1 0.8
2015-Mar-08 00:32N 35°07' E 139°47'2 2.5
2015-Mar-07 23:33N 35°05' E 139°47'2 2.0
2015-Mar-07 22:32N 35°03' E 139°46'1 1.5
2015-Mar-07 21:32N 35°01' E 139°45'2 1.5
2015-Mar-07 20:26N 34°60' E 139°44'  

Dump ship's entire track history